Time;durP1;ratioP1;P1;durP2;ratioP2;P2;SDS_P1;SDS_P2;PMS_P1;PMS_P2;Temp;Humidity;BMP_temperature;BMP_pressure;BME280_temperature;BME280_humidity;BME280_pressure;Samples;Min_cycle;Max_cycle;Signal;HPM_P1;HPM_P2
2023/08/30 04:11:20;;;;;;;57.47;6.88;;;;;;;23.15;39.45;100124.38;10522769;23;20511;-84
2023/08/30 04:16:21;;;;;;;25.50;5.97;;;;;;;23.30;38.55;100050.53;10256696;28;20091;-84
2023/08/30 04:21:24;;;;;;;35.92;7.10;;;;;;;23.34;37.64;100002.06;10245831;29;20083;-86
2023/08/30 04:26:26;;;;;;;42.15;6.75;;;;;;;23.63;37.14;99973.50;10249317;29;20115;-86
2023/08/30 04:31:29;;;;;;;34.70;6.82;;;;;;;24.44;37.09;100042.81;10249084;29;20055;-86
2023/08/30 04:36:35;;;;;;;;;;;;;;;25.95;36.87;100132.09;10235600;29;20118;-86
2023/08/30 04:41:39;;;;;;;12.75;4.15;;;;;;;24.32;38.79;100034.03;10235573;29;19918;-83
2023/08/30 04:46:40;;;;;;;8.82;3.53;;;;;;;24.05;39.26;100029.63;10252512;28;20057;-84
2023/08/30 04:51:43;;;;;;;;;;;;;;;24.98;39.48;100137.47;10292112;28;20047;-76
2023/08/30 05:01:44;;;;;;;17.50;5.55;;;;;;;23.57;41.25;100131.81;10531606;27;20476;-76
2023/08/30 05:06:44;;;;;;;29.38;7.82;;;;;;;23.72;41.23;100133.84;10532130;28;20040;-77
2023/08/30 05:11:45;;;;;;;34.17;17.48;;;;;;;23.50;40.21;100095.16;10531990;28;20033;-77
2023/08/30 05:16:46;;;;;;;38.47;28.35;;;;;;;23.48;38.64;100071.00;10531738;28;20044;-76
2023/08/30 05:21:47;;;;;;;45.13;33.00;;;;;;;23.27;37.32;100048.34;10531639;28;20050;-75
2023/08/30 05:26:48;;;;;;;79.13;60.30;;;;;;;23.74;36.34;100110.00;10531988;28;20048;-77
2023/08/30 05:31:49;;;;;;;108.70;83.70;;;;;;;24.00;34.73;100126.44;10531201;28;20518;-76
2023/08/30 05:36:49;;;;;;;109.15;77.80;;;;;;;23.98;34.04;100109.59;10531042;28;20051;-77
2023/08/30 05:41:50;;;;;;;118.63;94.82;;;;;;;24.14;33.11;100098.59;10530744;28;20295;-75
2023/08/30 05:46:51;;;;;;;128.90;80.25;;;;;;;24.17;32.08;100107.25;10530419;28;20036;-76
2023/08/30 05:51:52;;;;;;;116.57;87.15;;;;;;;23.63;32.08;100016.91;10530661;28;20036;-76
2023/08/30 05:56:52;;;;;;;135.60;98.43;;;;;;;24.60;32.00;100117.00;10530038;28;20062;-77
2023/08/30 06:01:53;;;;;;;134.82;99.70;;;;;;;24.96;31.26;100160.56;10530206;28;20036;-76
2023/08/30 06:06:54;;;;;;;121.03;90.72;;;;;;;24.84;31.32;100144.50;10529231;28;20166;-76
2023/08/30 06:11:54;;;;;;;131.07;81.68;;;;;;;24.80;31.04;100146.94;10508359;28;20041;-75
2023/08/30 06:16:55;;;;;;;97.57;72.15;;;;;;;25.02;30.91;100152.16;10501482;28;20067;-75
2023/08/30 06:21:56;;;;;;;108.95;74.70;;;;;;;24.99;30.63;100097.53;10501507;28;20048;-76
2023/08/30 06:26:57;;;;;;;86.15;63.03;;;;;;;25.44;29.94;100132.13;10501193;28;20051;-77
2023/08/30 06:31:58;;;;;;;81.10;59.30;;;;;;;25.22;29.97;100115.25;10501048;28;20037;-78
2023/08/30 06:36:59;;;;;;;69.82;43.72;;;;;;;25.69;28.94;100171.28;10500307;28;20503;-76
2023/08/30 06:42:00;;;;;;;46.63;37.85;;;;;;;25.12;28.79;100077.97;10500503;28;20127;-76
2023/08/30 06:47:00;;;;;;;72.10;36.35;;;;;;;25.17;28.31;100047.28;10499983;28;20036;-79
2023/08/30 06:52:03;;;;;;;60.58;38.45;;;;;;;25.76;27.77;100138.34;10500460;28;20463;-78
2023/08/30 06:57:06;;;;;;;53.00;36.37;;;;;;;26.08;28.07;100154.38;10499962;28;20052;-79
2023/08/30 07:02:07;;;;;;;69.47;33.35;;;;;;;25.47;27.26;100033.66;10499283;28;20076;-76
2023/08/30 07:07:08;;;;;;;64.72;29.40;;;;;;;26.01;26.94;100115.78;10498151;28;20055;-76
2023/08/30 07:12:09;;;;;;;54.83;35.00;;;;;;;26.15;26.87;100104.03;10499444;28;20119;-76
2023/08/30 07:17:10;;;;;;;99.18;39.83;;;;;;;26.33;26.56;100094.44;10499098;28;20053;-77
2023/08/30 07:22:11;;;;;;;67.78;30.60;;;;;;;26.61;26.59;100112.03;10498511;28;20491;-75
2023/08/30 07:27:14;;;;;;;40.90;28.80;;;;;;;27.07;26.58;100141.75;10496819;28;20045;-76
2023/08/30 07:32:15;;;;;;;44.67;28.38;;;;;;;27.01;26.06;100134.72;10499138;28;20411;-77
2023/08/30 07:37:20;;;;;;;37.50;23.20;;;;;;;27.03;24.90;100140.66;10497875;28;20044;-81
2023/08/30 07:42:20;;;;;;;33.88;21.70;;;;;;;26.95;25.00;100118.66;10498183;28;20036;-76
2023/08/30 07:47:21;;;;;;;30.77;20.58;;;;;;;26.98;24.90;100094.38;10497206;28;20055;-78
2023/08/30 07:52:22;;;;;;;30.33;19.80;;;;;;;27.13;24.80;100082.53;10496968;28;20044;-75
2023/08/30 07:57:23;;;;;;;30.40;18.92;;;;;;;27.59;24.81;100153.13;10496084;28;20404;-77
2023/08/30 08:02:23;;;;;;;48.28;16.40;;;;;;;27.21;24.05;100098.31;10497833;28;20123;-76
2023/08/30 08:07:24;;;;;;;22.85;16.05;;;;;;;27.57;23.74;100160.78;10496798;28;20049;-77
2023/08/30 08:12:27;;;;;;;39.67;16.67;;;;;;;27.46;23.93;100118.28;10497512;28;20039;-76
2023/08/30 08:17:28;;;;;;;25.00;14.40;;;;;;;27.33;23.71;100070.69;10495715;28;20044;-77
2023/08/30 08:22:29;;;;;;;29.52;14.45;;;;;;;27.97;23.76;100153.34;10496432;28;20040;-77
2023/08/30 08:27:30;;;;;;;21.50;12.75;;;;;;;27.66;23.43;100069.00;10495844;28;20048;-77
2023/08/30 08:32:31;;;;;;;38.42;12.32;;;;;;;27.69;23.27;100043.88;10496108;28;20498;-77
2023/08/30 08:37:32;;;;;;;36.45;13.27;;;;;;;27.08;22.90;99957.97;10496399;28;20033;-76
2023/08/30 08:42:33;;;;;;;43.78;13.77;;;;;;;27.75;23.33;100045.44;10496145;28;20047;-78
2023/08/30 08:47:34;;;;;;;21.58;13.65;;;;;;;27.99;22.55;100085.63;10496183;28;20044;-77
2023/08/30 08:52:35;;;;;;;43.67;14.05;;;;;;;28.39;23.18;100116.25;10496038;28;20037;-76
2023/08/30 08:57:38;;;;;;;25.13;12.77;;;;;;;27.79;22.59;100020.31;10496086;28;20444;-77
2023/08/30 09:02:40;;;;;;;30.52;13.52;;;;;;;28.56;23.22;100099.44;10495993;28;20047;-77
2023/08/30 09:07:42;;;;;;;24.33;11.75;;;;;;;28.81;22.71;100115.50;10495216;28;20078;-76
2023/08/30 09:12:43;;;;;;;40.60;12.68;;;;;;;28.37;22.63;100001.03;10495565;28;20032;-77
2023/08/30 09:17:44;;;;;;;16.92;12.93;;;;;;;28.70;22.12;100094.06;10495485;28;20453;-76
2023/08/30 09:22:45;;;;;;;42.85;13.77;;;;;;;28.86;22.78;100107.19;10494072;28;20130;-75
2023/08/30 09:27:45;;;;;;;46.10;11.50;;;;;;;28.41;22.50;100043.88;10496014;28;20044;-78
2023/08/30 09:32:46;;;;;;;22.05;10.55;;;;;;;28.88;22.29;100104.97;10494603;28;20037;-77
2023/08/30 09:37:47;;;;;;;14.68;9.80;;;;;;;28.82;21.97;100099.91;10495716;28;20047;-76
2023/08/30 09:42:48;;;;;;;20.55;8.85;;;;;;;28.99;21.96;100091.16;10495584;28;20045;-77
2023/08/30 09:47:49;;;;;;;14.77;8.65;;;;;;;28.59;21.71;100028.59;10500770;28;20037;-77
2023/08/30 09:52:52;;;;;;;22.13;7.68;;;;;;;28.16;22.05;99933.03;10501406;28;20431;-76
2023/08/30 09:57:53;;;;;;;11.32;6.30;;;;;;;28.62;22.17;100008.88;10501556;28;20102;-76
2023/08/30 10:02:55;;;;;;;10.50;5.40;;;;;;;29.00;21.46;100066.25;10503359;28;20087;-76
2023/08/30 10:07:56;;;;;;;11.95;4.97;;;;;;;29.14;21.76;100066.34;10502330;28;20487;-77
2023/08/30 10:12:58;;;;;;;15.02;4.97;;;;;;;29.36;21.61;100065.69;10471842;28;20626;-77
2023/08/30 10:18:00;;;;;;;16.45;4.07;;;;;;;28.77;21.57;99964.09;10419676;28;20048;-78
2023/08/30 10:23:02;;;;;;;13.95;4.10;;;;;;;29.19;21.31;100051.75;10430330;28;20041;-77
2023/08/30 10:28:04;;;;;;;22.90;4.07;;;;;;;28.71;21.63;99954.34;10430454;28;20056;-78
2023/08/30 10:33:13;;;;;;;16.40;3.63;;;;;;;28.82;20.74;99953.06;10437772;28;20094;-78
2023/08/30 10:38:25;;;;;;;15.82;3.47;;;;;;;29.63;21.20;100043.06;10439649;28;20044;-77
2023/08/30 10:43:31;;;;;;;17.52;3.55;;;;;;;29.43;21.45;100029.72;10434718;28;20034;-78
2023/08/30 10:48:39;;;;;;;20.52;3.30;;;;;;;29.47;21.92;100004.22;10437943;28;20044;-77
2023/08/30 10:53:39;;;;;;;11.00;2.85;;;;;;;29.76;22.45;100000.38;10436624;28;20038;-77
2023/08/30 10:58:44;;;;;;;10.25;2.72;;;;;;;29.33;21.52;99967.81;10436665;28;20408;-77
2023/08/30 11:03:44;;;;;;;7.35;2.33;;;;;;;28.38;21.40;99825.06;10440426;28;20045;-77
2023/08/30 11:08:48;;;;;;;12.15;2.53;;;;;;;29.56;21.60;100015.28;10441544;28;20038;-76
2023/08/30 11:13:49;;;;;;;12.32;2.65;;;;;;;29.36;21.73;99972.66;10416241;28;20042;-76
2023/08/30 11:18:49;;;;;;;6.18;2.30;;;;;;;29.11;21.62;99941.94;10416697;28;20037;-76
2023/08/30 11:23:51;;;;;;;7.32;2.17;;;;;;;28.98;21.28;99963.75;10415973;28;20049;-77
2023/08/30 11:28:52;;;;;;;9.93;2.03;;;;;;;28.35;21.88;99867.47;10415856;28;20038;-78
2023/08/30 11:33:55;;;;;;;5.68;2.45;;;;;;;29.32;21.47;100007.22;10415813;28;20120;-77
2023/08/30 11:38:57;;;;;;;11.43;2.55;;;;;;;29.52;21.46;100039.66;10415079;28;20405;-76
2023/08/30 11:43:58;;;;;;;8.43;2.33;;;;;;;29.60;21.68;100008.06;10416259;28;20596;-77
2023/08/30 11:49:00;;;;;;;18.67;2.70;;;;;;;29.03;21.79;99906.28;10415358;28;20080;-76
2023/08/30 11:54:03;;;;;;;14.00;2.42;;;;;;;28.92;21.94;99916.53;10415599;28;20120;-76
2023/08/30 11:59:04;;;;;;;;;;;;;;;29.61;21.26;100008.88;10415958;28;20061;-76
2023/08/30 12:04:11;;;;;;;9.65;2.50;;;;;;;29.38;20.88;100006.03;10415421;28;19928;-75
2023/08/30 12:09:13;;;;;;;10.93;2.50;;;;;;;28.87;21.38;99936.59;10413475;28;20070;-76
2023/08/30 12:14:13;;;;;;;8.60;2.58;;;;;;;28.83;21.39;99901.94;10414202;28;20048;-77
2023/08/30 12:19:14;;;;;;;19.63;3.25;;;;;;;28.23;21.87;99837.06;10414528;28;20041;-76
2023/08/30 12:24:15;;;;;;;38.53;3.92;;;;;;;29.35;22.14;99974.59;10414174;28;20040;-77
2023/08/30 12:29:16;;;;;;;38.05;3.60;;;;;;;28.81;22.19;99871.38;10425694;28;20041;-81
2023/08/30 12:34:17;;;;;;;13.60;2.75;;;;;;;28.71;22.33;99850.47;10423690;28;20044;-81
2023/08/30 12:46:32;;;;;;;13.98;2.30;;;;;;;28.23;22.05;99796.91;10453945;28;20045;-83
2023/08/30 12:52:45;;;;;;;;;;;;;;;;;;;;;
2023/08/30 13:05:03;;;;;;;;;;;;;;;29.34;21.33;99972.16;10242620;28;20058;-80
2023/08/30 17:13:47;;;;;;;24.17;9.20;;;;;;;25.51;39.53;100072.00;10486122;27;20416;-70
2023/08/30 17:22:40;;;;;;;35.45;16.75;;;;;;;21.85;31.11;100067.31;10450864;28;20480;-82
2023/08/30 17:29:05;;;;;;;34.45;20.17;;;;;;;21.73;32.28;100080.94;10477051;27;20817;-68
2023/08/30 17:34:06;;;;;;;51.97;26.17;;;;;;;21.74;33.22;100089.88;10488784;28;20102;-68
2023/08/30 17:39:07;;;;;;;47.47;27.92;;;;;;;21.66;33.33;100080.31;10470387;28;20041;-66
2023/08/30 17:44:08;;;;;;;44.25;29.48;;;;;;;21.46;34.13;100079.97;10446609;28;20413;-66
2023/08/30 17:49:09;;;;;;;54.25;30.10;;;;;;;21.44;34.49;100088.31;10458605;28;20034;-67
2023/08/30 17:54:10;;;;;;;52.38;32.28;;;;;;;21.27;35.09;100082.91;10447703;28;20041;-66
2023/08/30 17:59:13;;;;;;;56.90;34.78;;;;;;;21.14;35.67;100096.72;10447826;28;20044;-66
2023/08/30 18:04:14;;;;;;;61.00;35.53;;;;;;;20.80;36.04;100061.56;10458862;28;20428;-66
2023/08/30 18:09:15;;;;;;;49.22;36.53;;;;;;;20.79;36.76;100073.41;10445582;28;20450;-67
2023/08/30 18:14:16;;;;;;;50.05;30.35;;;;;;;21.24;36.12;100107.72;10470682;28;20131;-68
2023/08/30 18:19:16;;;;;;;54.63;28.65;;;;;;;21.33;36.41;100114.34;10488176;28;20114;-68
2023/08/30 18:24:19;;;;;;;42.35;26.58;;;;;;;21.10;37.28;100063.97;10486865;28;20041;-67
2023/08/30 18:29:20;;;;;;;47.28;24.02;;;;;;;21.32;37.90;100104.59;10455504;28;20045;-67
2023/08/30 18:34:21;;;;;;;35.97;22.08;;;;;;;21.27;38.58;100104.50;10456428;28;20037;-67
2023/08/30 18:39:22;;;;;;;42.10;19.83;;;;;;;21.23;39.46;100114.16;10435875;28;20037;-67
2023/08/30 18:44:23;;;;;;;37.95;17.55;;;;;;;20.63;40.17;100025.59;10418966;28;20401;-67
2023/08/30 18:49:24;;;;;;;48.30;15.60;;;;;;;20.98;41.00;100096.44;10425635;28;20037;-68
2023/08/30 18:54:26;;;;;;;56.50;14.10;;;;;;;21.06;41.73;100118.69;10419956;28;20564;-67
2023/08/30 18:59:28;;;;;;;33.30;12.45;;;;;;;20.75;42.58;100069.53;10417179;28;20095;-68
2023/08/30 19:04:29;;;;;;;28.15;11.45;;;;;;;20.92;42.93;100119.00;10428558;28;20041;-68
2023/08/30 19:09:31;;;;;;;29.23;10.38;;;;;;;20.79;43.69;100113.91;10415845;28;20076;-70
2023/08/30 19:14:32;;;;;;;34.97;10.18;;;;;;;20.44;44.11;100063.53;10431188;28;20045;-70
2023/08/30 19:19:33;;;;;;;20.45;8.73;;;;;;;20.68;44.49;100106.69;10442535;28;20049;-67
2023/08/30 19:24:36;;;;;;;24.75;7.55;;;;;;;20.52;44.95;100108.22;10425698;28;20058;-70
2023/08/30 19:29:37;;;;;;;26.77;7.95;;;;;;;20.54;45.34;100113.41;10419857;28;20041;-69
2023/08/30 19:34:38;;;;;;;22.10;6.72;;;;;;;20.45;45.71;100115.63;10455404;28;20040;-69
2023/08/30 19:39:39;;;;;;;23.27;6.20;;;;;;;20.36;46.01;100117.06;10427822;28;20044;-69
2023/08/30 19:44:39;;;;;;;21.48;6.05;;;;;;;20.36;46.22;100119.75;10415908;28;20496;-70
2023/08/30 19:49:40;;;;;;;10.98;4.68;;;;;;;20.31;46.61;100120.44;10414958;28;20041;-69
2023/08/30 19:54:41;;;;;;;14.93;4.75;;;;;;;20.22;46.72;100120.03;10427586;28;20136;-69
2023/08/30 19:59:42;;;;;;;15.27;4.13;;;;;;;20.17;47.07;100122.59;10414834;28;20045;-69
2023/08/30 20:04:42;;;;;;;18.92;3.85;;;;;;;20.16;47.23;100126.38;10415671;28;20409;-68
2023/08/30 20:09:43;;;;;;;9.75;2.85;;;;;;;20.03;47.45;100127.41;10415971;28;20132;-68
2023/08/30 20:14:44;;;;;;;9.85;3.20;;;;;;;19.71;47.98;100085.69;10414163;28;20041;-68
2023/08/30 20:19:46;;;;;;;15.80;3.25;;;;;;;20.05;47.97;100146.88;10415182;28;20037;-68
2023/08/30 20:24:47;;;;;;;17.42;3.05;;;;;;;19.94;48.23;100133.41;10415263;28;20057;-68
2023/08/30 20:29:47;;;;;;;10.93;3.00;;;;;;;19.99;48.37;100149.69;10414437;28;20484;-68
2023/08/30 20:34:48;;;;;;;9.88;2.63;;;;;;;20.01;48.54;100156.50;10414311;28;20033;-68
2023/08/30 20:39:50;;;;;;;7.80;2.22;;;;;;;19.95;48.74;100168.22;10414013;28;20095;-68
2023/08/30 20:44:51;;;;;;;30.05;3.40;;;;;;;19.88;49.26;100156.72;10414286;28;20041;-68
2023/08/30 20:49:52;;;;;;;11.30;2.58;;;;;;;19.54;49.55;100113.31;10413908;28;20432;-69
2023/08/30 20:54:53;;;;;;;14.10;2.60;;;;;;;19.33;49.75;100089.63;10414307;28;20405;-68
2023/08/30 20:59:54;;;;;;;10.55;2.85;;;;;;;19.66;50.13;100150.25;10414145;28;20046;-69
2023/08/30 21:04:54;;;;;;;5.13;2.20;;;;;;;19.63;50.25;100156.91;10413419;28;20147;-68
2023/08/30 21:09:55;;;;;;;5.70;2.47;;;;;;;19.59;50.66;100139.53;10412807;28;20090;-69
2023/08/30 21:14:56;;;;;;;9.98;2.30;;;;;;;19.13;50.59;100076.47;10413970;28;20405;-69
2023/08/30 21:19:57;;;;;;;14.20;2.60;;;;;;;19.33;50.98;100108.47;10412663;28;20042;-68
2023/08/30 21:24:58;;;;;;;9.90;2.65;;;;;;;19.32;51.39;100112.22;10412620;28;20057;-69
2023/08/30 21:29:58;;;;;;;8.50;2.42;;;;;;;19.43;51.39;100138.34;10413704;28;20132;-69
2023/08/30 21:34:59;;;;;;;5.03;1.95;;;;;;;18.79;51.81;100037.66;10413294;28;20047;-69
2023/08/30 21:40:00;;;;;;;9.75;2.97;;;;;;;18.98;52.20;100086.84;10412840;28;20427;-69
2023/08/30 21:45:02;;;;;;;7.65;2.60;;;;;;;19.12;52.66;100116.03;10412853;28;20057;-69
2023/08/30 21:50:03;;;;;;;8.93;2.53;;;;;;;18.86;52.87;100082.22;10412673;28;20033;-69
2023/08/30 21:55:07;;;;;;;14.90;2.85;;;;;;;18.64;53.26;100062.25;10412809;28;20042;-70
2023/08/30 22:00:08;;;;;;;8.50;2.92;;;;;;;18.53;53.61;100047.69;10412927;28;20041;-69
2023/08/30 22:05:11;;;;;;;8.05;2.67;;;;;;;18.81;53.94;100118.94;10411752;28;20052;-68
2023/08/30 22:10:13;;;;;;;13.20;2.88;;;;;;;18.73;54.31;100112.03;10412331;28;20108;-69
2023/08/30 22:15:14;;;;;;;21.75;3.28;;;;;;;18.45;54.45;100073.00;10418383;28;20067;-69
2023/08/30 22:20:15;;;;;;;15.23;2.63;;;;;;;18.68;54.50;100109.97;10420396;28;20041;-69
2023/08/30 22:25:17;;;;;;;15.98;2.63;;;;;;;18.65;54.73;100123.06;10418081;28;20564;-68
2023/08/30 22:30:17;;;;;;;8.68;2.97;;;;;;;18.25;55.14;100078.66;10420598;28;20462;-68
2023/08/30 22:35:18;;;;;;;15.00;2.90;;;;;;;18.55;55.22;100120.91;10459895;28;20136;-69
2023/08/30 22:40:19;;;;;;;6.50;2.47;;;;;;;18.19;55.61;100068.78;10459989;28;20037;-69
2023/08/30 22:45:20;;;;;;;8.07;2.40;;;;;;;18.09;55.74;100063.09;10458439;28;20040;-69
2023/08/30 22:50:21;;;;;;;7.38;2.65;;;;;;;17.94;56.27;100060.78;10429411;28;20048;-69
2023/08/30 22:55:21;;;;;;;11.13;2.78;;;;;;;18.34;56.78;100116.00;10418694;28;20199;-68
2023/08/30 23:00:22;;;;;;;5.78;3.00;;;;;;;17.68;56.62;100031.47;10418354;28;20120;-69
2023/08/30 23:05:23;;;;;;;5.00;2.40;;;;;;;18.20;56.96;100108.06;10418408;28;20037;-68
2023/08/30 23:10:26;;;;;;;4.78;2.63;;;;;;;17.90;57.56;100070.34;10417787;28;20065;-68
2023/08/30 23:15:27;;;;;;;7.20;2.80;;;;;;;18.11;57.67;100089.78;10417137;28;20418;-68
2023/08/30 23:20:28;;;;;;;6.90;2.80;;;;;;;18.09;57.88;100097.25;10417723;28;20347;-68
2023/08/30 23:25:29;;;;;;;9.15;3.03;;;;;;;18.09;58.10;100103.44;10417052;28;20111;-68
2023/08/30 23:30:29;;;;;;;6.15;2.80;;;;;;;18.12;58.49;100115.59;10416660;28;20048;-68
2023/08/30 23:35:31;;;;;;;7.32;2.80;;;;;;;18.24;58.77;100111.13;10417018;28;20624;-68
2023/08/30 23:40:32;;;;;;;8.82;2.95;;;;;;;18.26;58.83;100114.41;10417078;28;20038;-69
2023/08/30 23:45:33;;;;;;;4.18;2.85;;;;;;;18.18;58.91;100125.47;10416261;28;20128;-69
2023/08/30 23:50:34;;;;;;;8.50;3.28;;;;;;;17.63;59.36;100039.41;10415772;28;20065;-68
2023/08/30 23:55:34;;;;;;;9.32;2.95;;;;;;;17.91;59.59;100082.72;10415660;28;20045;-69
